createdAt,value
2022-12-29T00:00:52.000Z,4.97
2022-12-29T00:01:54.178Z,4.00
2022-12-29T00:02:57.369Z,5.28
2022-12-29T00:03:59.836Z,7.95
2022-12-29T00:05:04.459Z,3.40
2022-12-29T00:06:06.531Z,6.28
2022-12-29T00:07:09.824Z,7.95
2022-12-29T00:08:12.269Z,4.38
2022-12-29T00:09:16.396Z,4.57
2022-12-29T00:10:18.894Z,3.75
2022-12-29T00:11:24.176Z,5.28
2022-12-29T00:12:26.192Z,4.20
2022-12-29T00:13:46.559Z,7.75
2022-12-29T00:15:06.828Z,7.85
2022-12-29T00:16:10.265Z,7.35
2022-12-29T00:17:12.483Z,7.18
2022-12-29T00:18:15.740Z,4.53
2022-12-29T00:19:38.747Z,3.58
2022-12-29T00:21:00.846Z,5.72
2022-12-29T00:22:21.561Z,5.95
2022-12-29T00:23:42.836Z,3.85
2022-12-29T00:25:06.014Z,3.50
2022-12-29T00:26:32.989Z,5.25
2022-12-29T00:27:54.495Z,3.90
2022-12-29T00:29:15.135Z,5.78
2022-12-29T00:30:38.524Z,5.18
2022-12-29T00:31:59.871Z,4.32
2022-12-29T00:33:20.621Z,5.60
2022-12-29T00:34:41.330Z,3.85
2022-12-29T00:35:53.146Z,7.78
2022-12-29T00:36:55.312Z,5.45
2022-12-29T00:38:18.397Z,3.63
2022-12-29T00:39:39.232Z,5.38
2022-12-29T00:40:59.676Z,5.18
2022-12-29T00:42:23.130Z,3.35
2022-12-29T00:43:43.668Z,5.72
2022-12-29T00:44:46.888Z,3.80
2022-12-29T00:45:49.881Z,4.88
2022-12-29T00:46:53.169Z,4.82
2022-12-29T00:47:55.351Z,3.72
2022-12-29T00:49:15.906Z,5.55
2022-12-29T00:50:21.214Z,5.60
2022-12-29T00:51:24.997Z,4.93
2022-12-29T00:52:28.215Z,7.78
2022-12-29T00:53:30.363Z,4.95
2022-12-29T00:54:35.449Z,5.65
2022-12-29T00:55:38.509Z,4.82
2022-12-29T00:56:41.654Z,7.63
2022-12-29T00:57:43.861Z,6.78
2022-12-29T00:58:47.434Z,6.75
2022-12-29T00:59:52.569Z,6.75
2022-12-29T01:01:03.228Z,3.42
2022-12-29T01:02:07.886Z,5.72
2022-12-29T01:03:10.181Z,7.00
2022-12-29T01:04:14.605Z,5.22
2022-12-29T01:05:16.755Z,3.92
2022-12-29T01:06:22.365Z,7.13
2022-12-29T01:07:26.167Z,5.20
2022-12-29T01:08:29.497Z,4.53
2022-12-29T01:09:50.556Z,4.25
2022-12-29T01:10:59.568Z,6.50
2022-12-29T01:12:04.607Z,3.83
2022-12-29T01:13:06.762Z,5.05
2022-12-29T01:14:10.372Z,5.53
2022-12-29T01:15:15.441Z,4.20
2022-12-29T01:16:17.646Z,4.78
2022-12-29T01:17:23.972Z,3.13
2022-12-29T01:18:27.082Z,3.47
2022-12-29T01:19:30.224Z,3.65
2022-12-29T01:20:32.340Z,3.45
2022-12-29T01:21:35.958Z,4.88
2022-12-29T01:22:40.058Z,2.50
2022-12-29T01:23:43.289Z,3.28
2022-12-29T01:24:45.648Z,3.00
2022-12-29T01:25:49.936Z,5.57
2022-12-29T01:26:52.088Z,3.55
2022-12-29T01:27:56.273Z,3.78
2022-12-29T01:28:58.532Z,4.38
2022-12-29T01:30:05.348Z,3.50
2022-12-29T01:31:08.102Z,4.00
2022-12-29T01:32:11.367Z,4.45
2022-12-29T01:33:14.570Z,4.72
2022-12-29T01:34:17.829Z,4.43
2022-12-29T01:35:20.499Z,5.35
2022-12-29T01:36:24.109Z,3.78
2022-12-29T01:37:26.644Z,3.35
2022-12-29T01:38:31.508Z,3.20
2022-12-29T01:39:33.712Z,3.80
2022-12-29T01:40:45.476Z,3.97
2022-12-29T01:41:47.630Z,4.57
2022-12-29T01:42:53.272Z,4.97
2022-12-29T01:43:57.516Z,4.00
2022-12-29T01:45:05.591Z,6.35
2022-12-29T01:46:16.931Z,5.82
2022-12-29T01:47:32.160Z,5.13
2022-12-29T01:48:35.134Z,5.18
2022-12-29T01:49:38.315Z,4.15
2022-12-29T01:50:42.597Z,6.43
2022-12-29T01:51:50.752Z,4.70
2022-12-29T01:52:58.570Z,4.57
2022-12-29T01:54:07.611Z,4.10
2022-12-29T01:55:12.185Z,3.75
2022-12-29T01:56:19.435Z,4.40
2022-12-29T01:57:25.284Z,6.88
2022-12-29T01:58:32.792Z,5.63
2022-12-29T01:59:41.107Z,4.18
2022-12-29T02:00:44.329Z,4.75
2022-12-29T02:01:47.053Z,5.38
2022-12-29T02:02:53.172Z,5.55
2022-12-29T02:03:55.501Z,5.28
2022-12-29T02:05:04.410Z,4.63
2022-12-29T02:06:11.677Z,6.35
2022-12-29T02:07:19.965Z,4.63
2022-12-29T02:08:25.975Z,6.78
2022-12-29T02:09:30.846Z,5.18
2022-12-29T02:10:35.645Z,4.55
2022-12-29T02:11:40.741Z,5.25
2022-12-29T02:12:43.737Z,6.22
2022-12-29T02:13:46.919Z,5.97
2022-12-29T02:14:52.426Z,6.30
2022-12-29T02:16:16.911Z,4.18
2022-12-29T02:17:32.940Z,5.20
2022-12-29T02:18:49.014Z,4.45
2022-12-29T02:20:19.316Z,5.82
2022-12-29T02:22:09.893Z,6.38
2022-12-29T02:23:52.920Z,5.50
2022-12-29T02:25:36.705Z,5.80
2022-12-29T02:27:04.772Z,4.78
2022-12-29T02:28:39.005Z,6.47
2022-12-29T02:29:59.627Z,4.93
2022-12-29T02:31:18.268Z,5.45
2022-12-29T02:32:29.307Z,6.00
2022-12-29T02:33:48.598Z,4.80
2022-12-29T02:35:00.094Z,7.45
2022-12-29T02:36:14.821Z,4.72
2022-12-29T02:37:24.465Z,5.15
2022-12-29T02:38:43.167Z,3.85
2022-12-29T02:39:54.428Z,3.83
2022-12-29T02:41:04.560Z,6.85
2022-12-29T02:42:16.074Z,4.43
2022-12-29T02:43:26.715Z,4.45
2022-12-29T02:44:36.024Z,5.82
2022-12-29T02:45:46.241Z,5.80
2022-12-29T02:46:54.818Z,6.53
2022-12-29T02:48:06.525Z,5.07
2022-12-29T02:49:15.203Z,3.58
2022-12-29T02:50:25.055Z,5.75
2022-12-29T02:51:33.474Z,4.40
2022-12-29T02:52:41.341Z,3.45
2022-12-29T02:54:02.755Z,5.38
2022-12-29T02:55:05.950Z,5.13
2022-12-29T02:56:08.138Z,5.50
2022-12-29T02:57:15.188Z,3.67
2022-12-29T02:58:19.931Z,4.65
2022-12-29T02:59:24.566Z,4.35
2022-12-29T03:00:27.045Z,3.75
2022-12-29T03:02:07.865Z,6.97
2022-12-29T03:03:25.009Z,5.22
2022-12-29T03:04:37.744Z,6.20
2022-12-29T03:06:02.771Z,3.40
2022-12-29T03:07:14.758Z,4.65
2022-12-29T03:08:24.958Z,3.88
2022-12-29T03:09:38.603Z,4.65
2022-12-29T03:10:49.887Z,4.57
2022-12-29T03:12:10.519Z,4.40
2022-12-29T03:13:43.783Z,3.38
2022-12-29T03:15:11.712Z,4.10
2022-12-29T03:16:23.301Z,5.03
2022-12-29T03:17:30.834Z,4.40
2022-12-29T03:18:43.493Z,3.13
2022-12-29T03:19:51.464Z,3.25
2022-12-29T03:20:57.080Z,4.18
2022-12-29T03:22:21.514Z,2.80
2022-12-29T03:23:31.573Z,2.70
2022-12-29T03:24:38.112Z,3.88
2022-12-29T03:25:45.917Z,2.95
2022-12-29T03:26:50.571Z,4.25
2022-12-29T03:27:59.290Z,4.88
2022-12-29T03:29:03.218Z,3.08
2022-12-29T03:30:09.864Z,2.90
2022-12-29T03:31:15.541Z,3.22
2022-12-29T03:32:19.473Z,3.67
2022-12-29T03:33:25.087Z,4.85
2022-12-29T03:34:32.864Z,4.57
2022-12-29T03:35:39.846Z,2.30
2022-12-29T03:36:53.315Z,3.75
2022-12-29T03:38:01.206Z,3.65
2022-12-29T03:39:09.966Z,3.30
2022-12-29T03:40:14.054Z,5.13
2022-12-29T03:41:21.052Z,5.95
2022-12-29T03:42:27.511Z,3.35
2022-12-29T03:43:30.370Z,3.75
2022-12-29T03:44:35.477Z,4.18
2022-12-29T03:45:38.619Z,2.47
2022-12-29T03:46:41.872Z,3.45
2022-12-29T03:47:44.921Z,3.28
2022-12-29T03:48:48.991Z,2.50
2022-12-29T03:49:53.355Z,3.78
2022-12-29T03:50:56.540Z,3.17
2022-12-29T03:51:59.151Z,3.30
2022-12-29T03:53:03.101Z,2.78
2022-12-29T03:54:06.373Z,2.88
2022-12-29T03:55:10.676Z,3.25
2022-12-29T03:56:14.601Z,4.43
2022-12-29T03:57:17.945Z,6.10
2022-12-29T03:58:31.115Z,4.28
2022-12-29T03:59:43.120Z,3.08
2022-12-29T04:00:45.382Z,3.30
2022-12-29T04:01:48.870Z,3.42
2022-12-29T04:02:51.878Z,2.50
2022-12-29T04:03:57.663Z,3.70
2022-12-29T04:05:01.285Z,3.78
2022-12-29T04:06:05.064Z,3.58
2022-12-29T04:07:15.820Z,2.63
2022-12-29T04:08:19.701Z,3.45
2022-12-29T04:09:21.845Z,2.92
2022-12-29T04:10:26.332Z,2.42
2022-12-29T04:11:34.585Z,2.95
2022-12-29T04:12:39.886Z,4.30
2022-12-29T04:13:42.090Z,2.75
2022-12-29T04:14:47.376Z,2.80
2022-12-29T04:15:49.663Z,2.35
2022-12-29T04:16:54.059Z,3.38
2022-12-29T04:17:56.244Z,2.90
2022-12-29T04:18:59.420Z,2.30
2022-12-29T04:20:17.968Z,3.17
2022-12-29T04:21:21.142Z,2.33
2022-12-29T04:22:23.971Z,4.20
2022-12-29T04:23:27.242Z,3.90
2022-12-29T04:24:29.637Z,2.00
2022-12-29T04:25:33.450Z,2.30
2022-12-29T04:26:37.029Z,3.60
2022-12-29T04:28:08.857Z,2.20
2022-12-29T04:29:24.187Z,2.00
2022-12-29T04:30:59.920Z,2.08
2022-12-29T04:32:08.433Z,2.40
2022-12-29T04:33:15.979Z,1.50
2022-12-29T04:34:21.253Z,2.42
2022-12-29T04:35:26.521Z,2.25
2022-12-29T04:36:30.298Z,2.30
2022-12-29T04:37:33.965Z,3.00
2022-12-29T04:38:37.391Z,1.40
2022-12-29T04:39:40.645Z,2.38
2022-12-29T04:40:45.638Z,1.52
2022-12-29T04:41:48.144Z,1.40
2022-12-29T04:42:55.223Z,3.70
2022-12-29T04:43:58.450Z,2.00
2022-12-29T04:45:20.146Z,2.20
2022-12-29T04:46:49.547Z,1.55
2022-12-29T04:48:07.948Z,1.90
2022-12-29T04:49:20.825Z,2.90
2022-12-29T04:50:39.929Z,1.63
2022-12-29T04:51:53.091Z,1.20
2022-12-29T04:52:57.652Z,1.30
2022-12-29T04:53:59.815Z,1.92
2022-12-29T04:55:05.154Z,2.42
2022-12-29T04:56:08.062Z,2.92
2022-12-29T04:57:11.255Z,2.67
2022-12-29T04:58:20.758Z,3.35
2022-12-29T04:59:25.919Z,1.70
2022-12-29T05:00:32.132Z,1.48
2022-12-29T05:01:35.507Z,2.15
2022-12-29T05:02:38.360Z,3.53
2022-12-29T05:03:41.713Z,2.05
2022-12-29T05:04:44.244Z,3.17
2022-12-29T05:05:48.860Z,2.10
2022-12-29T05:06:51.031Z,3.00
2022-12-29T05:07:54.712Z,4.53
2022-12-29T05:08:57.966Z,1.75
2022-12-29T05:10:00.477Z,1.92
2022-12-29T05:11:03.777Z,1.67
2022-12-29T05:12:06.486Z,2.78
2022-12-29T05:13:11.381Z,2.47
2022-12-29T05:14:14.273Z,1.52
2022-12-29T05:15:17.731Z,1.33
2022-12-29T05:16:21.064Z,1.90
2022-12-29T05:17:24.353Z,1.60
2022-12-29T05:18:26.538Z,3.75
2022-12-29T05:19:30.703Z,3.33
2022-12-29T05:20:32.926Z,1.50
2022-12-29T05:21:37.478Z,1.80
2022-12-29T05:22:39.690Z,1.38
2022-12-29T05:23:43.410Z,1.48
2022-12-29T05:24:45.766Z,2.22
2022-12-29T05:25:49.021Z,2.10
2022-12-29T05:27:04.484Z,3.40
2022-12-29T05:28:15.024Z,2.45
2022-12-29T05:29:33.210Z,2.40
2022-12-29T05:30:36.435Z,2.70
2022-12-29T05:31:38.645Z,1.83
2022-12-29T05:32:42.825Z,2.42
2022-12-29T05:33:45.066Z,2.05
2022-12-29T05:34:49.340Z,3.38
2022-12-29T05:35:53.456Z,2.20
2022-12-29T05:36:59.331Z,2.33
2022-12-29T05:38:01.475Z,2.65
2022-12-29T05:39:04.897Z,2.55
2022-12-29T05:40:09.181Z,2.90
2022-12-29T05:41:12.646Z,4.22
2022-12-29T05:42:24.457Z,2.10
2022-12-29T05:43:50.120Z,2.40
2022-12-29T05:45:18.476Z,4.70
2022-12-29T05:46:42.071Z,2.95
2022-12-29T05:47:44.323Z,2.63
2022-12-29T05:49:17.612Z,3.50
2022-12-29T05:50:31.140Z,2.72
2022-12-29T05:51:48.607Z,4.07
2022-12-29T05:52:52.246Z,4.43
2022-12-29T05:53:56.163Z,2.67
2022-12-29T05:54:58.972Z,2.45
2022-12-29T05:56:03.818Z,3.67
2022-12-29T05:57:06.127Z,2.42
2022-12-29T05:58:10.856Z,3.20
2022-12-29T05:59:13.119Z,2.72
2022-12-29T06:00:17.702Z,2.03
2022-12-29T06:01:22.460Z,3.40
2022-12-29T06:02:25.860Z,2.47
2022-12-29T06:03:28.529Z,2.53
2022-12-29T06:04:31.889Z,3.70
2022-12-29T06:05:34.212Z,1.75
2022-12-29T06:06:37.451Z,4.10
2022-12-29T06:07:39.950Z,3.35
2022-12-29T06:08:44.653Z,3.75
2022-12-29T06:09:47.034Z,2.85
2022-12-29T06:10:50.397Z,4.93
2022-12-29T06:11:52.680Z,1.85
2022-12-29T06:12:55.861Z,2.28
2022-12-29T06:13:58.024Z,2.28
2022-12-29T06:15:01.454Z,4.43
2022-12-29T06:16:03.826Z,2.40
2022-12-29T06:17:07.525Z,2.90
2022-12-29T06:18:16.430Z,3.60
2022-12-29T06:19:22.941Z,1.77
2022-12-29T06:20:25.155Z,2.78
2022-12-29T06:21:29.126Z,2.33
2022-12-29T06:22:31.399Z,3.45
2022-12-29T06:23:34.626Z,1.67
2022-12-29T06:24:39.151Z,1.60
2022-12-29T06:25:41.351Z,2.70
2022-12-29T06:26:44.614Z,1.80
2022-12-29T06:27:46.842Z,4.40
2022-12-29T06:28:49.987Z,2.28
2022-12-29T06:29:52.273Z,5.15
2022-12-29T06:30:55.511Z,1.40
2022-12-29T06:31:59.062Z,1.33
2022-12-29T06:33:03.054Z,2.00
2022-12-29T06:34:08.526Z,1.50
2022-12-29T06:35:13.513Z,2.53
2022-12-29T06:36:20.621Z,1.85
2022-12-29T06:37:23.943Z,2.03
2022-12-29T06:38:26.125Z,3.25
2022-12-29T06:39:29.381Z,2.45
2022-12-29T06:40:46.709Z,2.83
2022-12-29T06:42:12.464Z,1.40
2022-12-29T06:43:44.904Z,2.75
2022-12-29T06:45:21.742Z,1.92
2022-12-29T06:46:25.025Z,2.28
2022-12-29T06:47:27.172Z,2.40
2022-12-29T06:48:30.360Z,1.90
2022-12-29T06:49:32.511Z,2.47
2022-12-29T06:50:35.693Z,1.70
2022-12-29T06:51:37.866Z,2.05
2022-12-29T06:52:41.033Z,1.95
2022-12-29T06:53:43.192Z,2.30
2022-12-29T06:54:46.475Z,1.63
2022-12-29T06:55:51.455Z,2.30
2022-12-29T06:56:53.626Z,1.52
2022-12-29T06:57:57.409Z,2.25
2022-12-29T06:59:01.118Z,2.10
2022-12-29T07:00:05.811Z,3.63
2022-12-29T07:01:09.009Z,1.42
2022-12-29T07:02:12.504Z,2.55
2022-12-29T07:03:15.892Z,2.08
2022-12-29T07:04:19.316Z,2.58
2022-12-29T07:05:22.456Z,1.88
2022-12-29T07:06:25.838Z,4.97
2022-12-29T07:07:27.993Z,2.22
2022-12-29T07:08:31.214Z,2.25
2022-12-29T07:09:33.391Z,2.50
2022-12-29T07:10:36.900Z,1.48
2022-12-29T07:11:40.454Z,3.85
2022-12-29T07:12:43.582Z,3.15
2022-12-29T07:13:45.745Z,3.50
2022-12-29T07:14:48.910Z,3.80
2022-12-29T07:15:51.088Z,3.25
2022-12-29T07:16:54.241Z,3.80
2022-12-29T07:17:56.578Z,2.40
2022-12-29T07:19:00.505Z,2.95
2022-12-29T07:20:02.923Z,2.20
2022-12-29T07:21:06.672Z,2.25
2022-12-29T07:22:10.537Z,2.75
2022-12-29T07:23:13.812Z,4.00
2022-12-29T07:24:16.082Z,1.70
2022-12-29T07:25:19.257Z,2.20
2022-12-29T07:26:21.407Z,2.25
2022-12-29T07:27:26.021Z,1.90
2022-12-29T07:28:29.159Z,3.00
2022-12-29T07:29:31.299Z,2.65
2022-12-29T07:30:34.526Z,2.08
2022-12-29T07:31:37.836Z,1.90
2022-12-29T07:32:40.023Z,2.28
2022-12-29T07:33:44.190Z,3.90
2022-12-29T07:34:48.346Z,3.05
2022-12-29T07:35:51.626Z,3.85
2022-12-29T07:36:53.778Z,1.60
2022-12-29T07:37:56.900Z,3.35
2022-12-29T07:38:59.063Z,2.47
2022-12-29T07:40:03.062Z,2.97
2022-12-29T07:41:05.499Z,2.72
2022-12-29T07:42:08.752Z,2.42
2022-12-29T07:43:19.602Z,4.07
2022-12-29T07:44:48.238Z,3.72
2022-12-29T07:46:18.922Z,1.60
2022-12-29T07:47:34.259Z,5.07
2022-12-29T07:48:37.066Z,5.15
2022-12-29T07:49:40.270Z,3.95
2022-12-29T07:50:42.426Z,2.03
2022-12-29T07:51:45.716Z,3.30
2022-12-29T07:52:49.001Z,2.88
2022-12-29T07:53:52.132Z,3.20
2022-12-29T07:54:54.296Z,5.22
2022-12-29T07:55:58.253Z,5.60
2022-12-29T07:57:02.170Z,2.45
2022-12-29T07:58:04.650Z,4.22
2022-12-29T07:59:09.196Z,4.30
2022-12-29T08:00:13.469Z,3.95
2022-12-29T08:01:15.904Z,3.65
2022-12-29T08:02:19.269Z,3.55
2022-12-29T08:03:21.754Z,3.90
2022-12-29T08:04:24.945Z,3.30
2022-12-29T08:05:27.332Z,3.33
2022-12-29T08:06:31.720Z,2.55
2022-12-29T08:07:33.849Z,4.53
2022-12-29T08:08:37.062Z,3.13
2022-12-29T08:09:39.253Z,4.22
2022-12-29T08:10:42.419Z,4.97
2022-12-29T08:11:45.009Z,4.35
2022-12-29T08:12:48.150Z,3.70
2022-12-29T08:13:50.456Z,3.67
2022-12-29T08:14:55.026Z,2.33
2022-12-29T08:15:59.793Z,2.90
2022-12-29T08:17:02.205Z,1.65
2022-12-29T08:18:05.350Z,1.70
2022-12-29T08:19:07.505Z,3.35
2022-12-29T08:20:11.651Z,2.33
2022-12-29T08:21:13.924Z,1.58
2022-12-29T08:22:17.546Z,2.80
2022-12-29T08:23:19.728Z,2.83
2022-12-29T08:24:23.127Z,2.60
2022-12-29T08:25:25.282Z,1.52
2022-12-29T08:26:28.554Z,1.48
2022-12-29T08:27:30.700Z,5.40
2022-12-29T08:28:34.824Z,3.35
2022-12-29T08:29:36.977Z,1.70
2022-12-29T08:30:41.626Z,1.48
2022-12-29T08:31:44.966Z,1.85
2022-12-29T08:32:48.238Z,4.45
2022-12-29T08:33:50.532Z,3.28
2022-12-29T08:34:53.642Z,1.65
2022-12-29T08:36:00.377Z,1.65
2022-12-29T08:37:03.545Z,2.75
2022-12-29T08:38:05.818Z,2.20
2022-12-29T08:39:09.044Z,2.33
2022-12-29T08:40:11.779Z,1.20
2022-12-29T08:41:15.122Z,2.55
2022-12-29T08:42:17.287Z,2.70
2022-12-29T08:43:20.409Z,2.63
2022-12-29T08:44:23.827Z,3.28
2022-12-29T08:45:26.286Z,2.53
2022-12-29T08:46:30.929Z,3.25
2022-12-29T08:47:33.077Z,3.30
2022-12-29T08:48:36.267Z,3.70
2022-12-29T08:49:38.769Z,3.00
2022-12-29T08:50:41.990Z,2.08
2022-12-29T08:51:45.182Z,2.00
2022-12-29T08:52:47.438Z,2.67
2022-12-29T08:53:51.608Z,3.40
2022-12-29T08:54:53.874Z,2.22
2022-12-29T08:56:04.585Z,2.50
2022-12-29T08:57:11.617Z,2.33
2022-12-29T08:58:25.198Z,2.28
2022-12-29T08:59:28.531Z,3.90
2022-12-29T09:00:30.828Z,3.88
2022-12-29T09:01:37.418Z,2.72
2022-12-29T09:02:40.980Z,3.95
2022-12-29T09:04:13.513Z,2.90
2022-12-29T09:05:07.388Z,3.88
2022-12-29T09:06:09.941Z,1.98
2022-12-29T09:07:13.269Z,2.58
2022-12-29T09:08:19.708Z,3.67
2022-12-29T09:09:26.105Z,2.05
2022-12-29T09:10:29.350Z,3.63
2022-12-29T09:11:31.803Z,3.80
2022-12-29T09:12:36.845Z,2.97
2022-12-29T09:13:40.158Z,6.53
2022-12-29T09:14:43.794Z,3.60
2022-12-29T09:15:47.077Z,3.80
2022-12-29T09:17:10.483Z,4.00
2022-12-29T09:18:19.113Z,4.18
2022-12-29T09:19:23.219Z,3.03
2022-12-29T09:20:27.617Z,3.22
2022-12-29T09:21:31.029Z,4.88
2022-12-29T09:22:33.696Z,4.97
2022-12-29T09:23:37.172Z,3.75
2022-12-29T09:24:39.549Z,4.13
2022-12-29T09:25:44.640Z,5.38
2022-12-29T09:26:47.464Z,4.00
2022-12-29T09:27:51.388Z,4.57
2022-12-29T09:28:53.660Z,4.38
2022-12-29T09:29:56.892Z,4.25
2022-12-29T09:31:00.862Z,5.93
2022-12-29T09:32:07.822Z,4.75
2022-12-29T09:33:11.403Z,4.53
2022-12-29T09:34:13.648Z,5.13
2022-12-29T09:35:18.387Z,2.95
2022-12-29T09:36:20.592Z,3.20
2022-12-29T09:37:23.734Z,4.57
2022-12-29T09:38:28.016Z,4.70
2022-12-29T09:39:31.160Z,6.63
2022-12-29T09:40:36.162Z,3.22
2022-12-29T09:41:45.472Z,6.13
2022-12-29T09:43:04.397Z,3.75
2022-12-29T09:44:17.306Z,6.95
2022-12-29T09:45:27.169Z,7.75
2022-12-29T09:46:33.302Z,4.90
2022-12-29T09:47:38.769Z,6.03
2022-12-29T09:48:45.434Z,4.18
2022-12-29T09:49:54.550Z,5.95
2022-12-29T09:50:59.431Z,5.00
2022-12-29T09:52:08.036Z,6.50
2022-12-29T09:53:17.577Z,3.25
2022-12-29T09:54:28.947Z,3.83
2022-12-29T09:55:37.862Z,6.38
2022-12-29T09:56:40.044Z,9.25
2022-12-29T09:57:49.262Z,5.47
2022-12-29T09:58:55.587Z,2.50
2022-12-29T10:00:03.964Z,5.32
2022-12-29T10:01:27.286Z,4.85
2022-12-29T10:02:38.832Z,5.10
2022-12-29T10:03:49.619Z,3.65
2022-12-29T10:04:52.515Z,4.43
2022-12-29T10:06:01.132Z,9.82
2022-12-29T10:07:28.975Z,6.43
2022-12-29T10:08:41.704Z,5.55
2022-12-29T10:09:53.220Z,7.90
2022-12-29T10:10:58.650Z,5.70
2022-12-29T10:12:14.114Z,7.45
2022-12-29T10:13:33.012Z,3.85
2022-12-29T10:14:48.343Z,9.20
2022-12-29T10:16:03.349Z,5.97
2022-12-29T10:17:22.749Z,6.13
2022-12-29T10:19:04.176Z,8.38
2022-12-29T10:20:34.040Z,5.97
2022-12-29T10:21:52.039Z,5.40
2022-12-29T10:23:13.618Z,8.15
2022-12-29T10:24:18.940Z,4.13
2022-12-29T10:25:25.102Z,6.95
2022-12-29T10:26:33.995Z,6.50
2022-12-29T10:27:37.118Z,10.20
2022-12-29T10:28:44.430Z,6.38
2022-12-29T10:29:52.575Z,6.00
2022-12-29T10:30:55.927Z,9.13
2022-12-29T10:32:01.777Z,5.70
2022-12-29T10:33:07.311Z,4.85
2022-12-29T10:34:20.661Z,6.07
2022-12-29T10:35:25.848Z,3.90
2022-12-29T10:36:37.806Z,5.63
2022-12-29T10:37:45.354Z,10.68
2022-12-29T10:39:07.313Z,9.38
2022-12-29T10:40:20.759Z,5.45
2022-12-29T10:41:27.722Z,6.03
2022-12-29T10:42:37.797Z,4.78
2022-12-29T10:43:47.544Z,6.38
2022-12-29T10:44:49.850Z,7.23
2022-12-29T10:45:55.093Z,10.68
2022-12-29T10:47:01.755Z,3.85
2022-12-29T10:48:07.736Z,6.97
2022-12-29T10:49:21.627Z,8.80
2022-12-29T10:50:27.199Z,7.15
2022-12-29T10:51:35.387Z,9.45
2022-12-29T10:52:41.872Z,9.38
2022-12-29T10:53:48.316Z,6.40
2022-12-29T10:54:56.791Z,8.68
2022-12-29T10:56:02.087Z,7.22
2022-12-29T10:57:11.393Z,8.73
2022-12-29T10:58:17.015Z,9.15
2022-12-29T10:59:23.508Z,9.18
2022-12-29T11:00:26.727Z,6.30
2022-12-29T11:01:35.244Z,6.22
2022-12-29T11:02:55.700Z,8.55
2022-12-29T11:04:08.009Z,8.20
2022-12-29T11:05:20.315Z,5.68
2022-12-29T11:06:27.222Z,8.68
2022-12-29T11:07:31.633Z,8.15
2022-12-29T11:08:38.558Z,6.50
2022-12-29T11:09:43.412Z,7.15
2022-12-29T11:10:48.969Z,7.70
2022-12-29T11:11:52.105Z,9.25
2022-12-29T11:12:59.307Z,7.63
2022-12-29T11:14:11.069Z,9.18
2022-12-29T11:15:16.250Z,8.35
2022-12-29T11:16:31.587Z,5.93
2022-12-29T11:17:46.027Z,6.53
2022-12-29T11:18:49.591Z,7.78
2022-12-29T11:19:51.858Z,8.68
2022-12-29T11:21:00.180Z,5.72
2022-12-29T11:22:16.088Z,5.00
2022-12-29T11:23:35.086Z,5.72
2022-12-29T11:24:46.558Z,5.53
2022-12-29T11:26:09.056Z,9.82
2022-12-29T11:27:17.233Z,7.00
2022-12-29T11:28:19.358Z,7.45
2022-12-29T11:29:27.701Z,5.75
2022-12-29T11:30:32.327Z,8.63
2022-12-29T11:31:42.807Z,6.45
2022-12-29T11:32:53.407Z,6.25
2022-12-29T11:33:55.569Z,9.32
2022-12-29T11:34:59.726Z,9.07
2022-12-29T11:36:05.424Z,8.35
2022-12-29T11:37:13.451Z,6.30
2022-12-29T11:38:22.762Z,7.82
2022-12-29T11:39:33.890Z,7.50
2022-12-29T11:40:41.525Z,4.80
2022-12-29T11:41:53.333Z,4.60
2022-12-29T11:43:00.658Z,4.32
2022-12-29T11:44:06.228Z,8.13
2022-12-29T11:45:18.434Z,5.63
2022-12-29T11:46:28.249Z,2.75
2022-12-29T11:47:33.913Z,6.82
2022-12-29T11:48:41.501Z,5.78
2022-12-29T11:49:52.205Z,3.92
2022-12-29T11:50:57.421Z,6.75
2022-12-29T11:51:59.777Z,5.65
2022-12-29T11:53:05.625Z,5.22
2022-12-29T11:54:07.961Z,3.65
2022-12-29T11:55:23.019Z,4.25
2022-12-29T11:56:40.521Z,5.82
2022-12-29T11:57:45.980Z,2.90
2022-12-29T11:58:50.526Z,6.07
2022-12-29T11:59:56.055Z,2.63
2022-12-29T12:01:03.675Z,5.80
2022-12-29T12:02:25.462Z,5.25
2022-12-29T12:03:34.156Z,4.82
2022-12-29T12:04:40.074Z,3.03
2022-12-29T12:05:55.804Z,5.72
2022-12-29T12:07:04.419Z,5.70
2022-12-29T12:08:19.070Z,5.47
2022-12-29T12:09:29.170Z,3.85
2022-12-29T12:10:39.803Z,6.97
2022-12-29T12:11:46.565Z,6.18
2022-12-29T12:12:56.276Z,6.25
2022-12-29T12:14:04.626Z,6.05
2022-12-29T12:15:33.399Z,6.80
2022-12-29T12:16:42.416Z,6.03
2022-12-29T12:17:51.603Z,6.00
2022-12-29T12:18:59.963Z,4.35
2022-12-29T12:20:14.316Z,7.85
2022-12-29T12:21:29.306Z,5.85
2022-12-29T12:22:36.385Z,6.88
2022-12-29T12:23:49.916Z,6.18
2022-12-29T12:24:59.500Z,4.53
2022-12-29T12:26:13.317Z,5.75
2022-12-29T12:27:22.689Z,5.63
2022-12-29T12:28:37.001Z,6.82
2022-12-29T12:29:48.819Z,5.53
2022-12-29T12:30:58.169Z,6.78
2022-12-29T12:32:07.760Z,7.13
2022-12-29T12:33:19.957Z,3.70
2022-12-29T12:34:37.837Z,6.07
2022-12-29T12:35:45.598Z,9.75
2022-12-29T12:37:21.397Z,5.05
2022-12-29T12:38:34.941Z,7.57
2022-12-29T12:39:49.999Z,6.47
2022-12-29T12:41:02.404Z,9.95
2022-12-29T12:42:23.941Z,7.25
2022-12-29T12:43:38.218Z,4.45
2022-12-29T12:44:53.110Z,4.45
2022-12-29T12:46:10.250Z,9.63
2022-12-29T12:47:29.147Z,7.47
2022-12-29T12:48:54.435Z,7.78
2022-12-29T12:50:30.146Z,13.00
2022-12-29T12:51:38.305Z,6.90
2022-12-29T12:53:12.286Z,8.13
2022-12-29T12:54:32.355Z,7.97
2022-12-29T12:55:51.592Z,7.40
2022-12-29T12:57:08.151Z,9.95
2022-12-29T12:58:25.184Z,8.65
2022-12-29T12:59:42.542Z,9.82
2022-12-29T13:01:00.270Z,5.90
2022-12-29T13:02:16.862Z,6.47
2022-12-29T13:03:32.855Z,6.10
2022-12-29T13:05:06.032Z,6.80
2022-12-29T13:06:20.431Z,7.43
2022-12-29T13:07:33.857Z,6.70
2022-12-29T13:08:51.205Z,10.50
2022-12-29T13:10:19.239Z,7.53
2022-12-29T13:11:30.967Z,5.95
2022-12-29T13:12:42.932Z,6.22
2022-12-29T13:14:16.657Z,12.85
2022-12-29T13:15:32.778Z,5.15
2022-12-29T13:16:45.146Z,8.00
2022-12-29T13:17:57.490Z,7.13
2022-12-29T13:19:03.591Z,7.82
2022-12-29T13:20:23.064Z,4.78
2022-12-29T13:21:38.516Z,6.72
2022-12-29T13:22:50.307Z,10.95
2022-12-29T13:23:59.786Z,7.80
2022-12-29T13:25:21.174Z,7.75
2022-12-29T13:26:32.074Z,8.10
2022-12-29T13:27:39.368Z,6.13
2022-12-29T13:28:52.314Z,9.00
2022-12-29T13:30:04.348Z,8.82
2022-12-29T13:31:17.786Z,6.75
2022-12-29T13:32:31.262Z,9.68
2022-12-29T13:33:44.712Z,12.00
2022-12-29T13:34:56.393Z,6.00
2022-12-29T13:36:06.353Z,6.72
2022-12-29T13:37:15.831Z,13.90
2022-12-29T13:38:23.711Z,8.45
2022-12-29T13:39:32.972Z,9.80
2022-12-29T13:40:41.542Z,6.57
2022-12-29T13:41:49.843Z,10.35
2022-12-29T13:42:55.169Z,6.50
2022-12-29T13:44:00.514Z,13.52
2022-12-29T13:45:08.665Z,7.78
2022-12-29T13:46:16.355Z,12.65
2022-12-29T13:47:28.846Z,10.73
2022-12-29T13:48:38.533Z,11.52
2022-12-29T13:49:42.537Z,9.43
2022-12-29T13:50:49.559Z,7.63
2022-12-29T13:51:56.234Z,10.07
2022-12-29T13:53:07.482Z,6.70
2022-12-29T13:54:20.477Z,12.68
2022-12-29T13:55:29.779Z,12.40
2022-12-29T13:56:39.504Z,8.95
2022-12-29T13:57:54.143Z,5.72
2022-12-29T13:59:05.635Z,7.38
2022-12-29T14:00:18.215Z,5.78
2022-12-29T14:01:28.880Z,6.85
2022-12-29T14:02:45.221Z,5.90
2022-12-29T14:03:53.443Z,6.95
2022-12-29T14:05:01.256Z,6.40
2022-12-29T14:06:18.736Z,6.72
2022-12-29T14:07:21.208Z,5.43
2022-12-29T14:08:25.354Z,7.35
2022-12-29T14:09:45.272Z,6.80
2022-12-29T14:10:50.741Z,5.00
2022-12-29T14:11:53.489Z,3.75
2022-12-29T14:13:04.442Z,8.95
2022-12-29T14:14:15.552Z,7.10
2022-12-29T14:15:25.387Z,6.38
2022-12-29T14:16:32.062Z,4.57
2022-12-29T14:17:34.683Z,7.15
2022-12-29T14:18:45.663Z,8.77
2022-12-29T14:19:52.748Z,5.57
2022-12-29T14:20:59.395Z,5.55
2022-12-29T14:22:04.335Z,8.88
2022-12-29T14:23:19.272Z,9.02
2022-12-29T14:24:41.991Z,10.48
2022-12-29T14:25:58.336Z,9.40
2022-12-29T14:27:01.891Z,6.53
2022-12-29T14:28:18.536Z,8.25
2022-12-29T14:29:52.873Z,10.32
2022-12-29T14:30:58.304Z,9.98
2022-12-29T14:32:01.539Z,13.18
2022-12-29T14:33:13.891Z,8.32
2022-12-29T14:34:28.049Z,6.50
2022-12-29T14:35:42.103Z,9.88
2022-12-29T14:36:56.521Z,5.10
2022-12-29T14:38:25.290Z,9.38
2022-12-29T14:39:33.932Z,7.93
2022-12-29T14:40:37.122Z,8.60
2022-12-29T14:41:41.426Z,11.35
2022-12-29T14:42:44.445Z,9.93
2022-12-29T14:44:19.829Z,12.75
2022-12-29T14:45:30.172Z,8.50
2022-12-29T14:46:57.344Z,7.18
2022-12-29T14:48:00.452Z,8.18
2022-12-29T14:49:04.969Z,9.25
2022-12-29T14:50:14.006Z,8.50
2022-12-29T14:51:32.008Z,9.65
2022-12-29T14:52:46.537Z,11.70
2022-12-29T14:53:50.367Z,12.05
2022-12-29T14:54:56.459Z,8.82
2022-12-29T14:56:00.807Z,11.73
2022-12-29T14:57:06.550Z,11.93
2022-12-29T14:58:20.567Z,9.07
2022-12-29T14:59:24.984Z,9.65
2022-12-29T15:00:33.417Z,13.07
2022-12-29T15:01:41.666Z,10.23
2022-12-29T15:02:51.201Z,12.60
2022-12-29T15:03:58.478Z,10.45
2022-12-29T15:05:03.108Z,10.85
2022-12-29T15:06:09.748Z,9.95
2022-12-29T15:07:14.080Z,11.93
2022-12-29T15:08:20.240Z,9.07
2022-12-29T15:09:31.984Z,7.63
2022-12-29T15:10:39.657Z,10.23